createdAt,value
2017-07-20T00:01:42.171Z,7.40
2017-07-20T00:04:10.839Z,8.50
2017-07-20T00:06:40.140Z,7.57
2017-07-20T00:09:08.398Z,8.93
2017-07-20T00:11:36.512Z,8.17
2017-07-20T00:14:04.093Z,7.87
2017-07-20T00:16:31.703Z,8.20
2017-07-20T00:18:59.607Z,7.67
2017-07-20T00:21:27.394Z,8.23
2017-07-20T00:23:55.890Z,7.00
2017-07-20T00:26:23.559Z,8.50
2017-07-20T00:28:51.128Z,8.87
2017-07-20T00:31:18.762Z,8.60
2017-07-20T00:33:46.350Z,8.00
2017-07-20T00:36:14.955Z,7.67
2017-07-20T00:38:42.586Z,7.97
2017-07-20T00:41:11.687Z,7.63
2017-07-20T00:43:40.650Z,7.73
2017-07-20T00:46:08.243Z,8.53
2017-07-20T00:48:36.805Z,8.83
2017-07-20T00:51:04.355Z,8.83
2017-07-20T00:53:31.912Z,8.30
2017-07-20T00:55:59.551Z,8.90
2017-07-20T00:58:27.249Z,8.23
2017-07-20T01:00:54.935Z,8.40
2017-07-20T01:03:22.752Z,7.80
2017-07-20T01:05:50.843Z,8.70
2017-07-20T01:08:19.226Z,7.87
2017-07-20T01:10:48.044Z,7.73
2017-07-20T01:13:15.619Z,7.70
2017-07-20T01:15:43.722Z,7.80
2017-07-20T01:18:12.007Z,8.13
2017-07-20T01:20:39.658Z,7.83
2017-07-20T01:23:07.894Z,8.60
2017-07-20T01:25:36.238Z,8.53
2017-07-20T01:28:03.986Z,8.10
2017-07-20T01:30:32.471Z,8.47
2017-07-20T01:33:00.363Z,8.13
2017-07-20T01:35:28.691Z,8.90
2017-07-20T01:37:56.365Z,7.93
2017-07-20T01:40:23.907Z,7.90
2017-07-20T01:42:51.421Z,7.30
2017-07-20T01:45:19.044Z,7.80
2017-07-20T01:47:46.805Z,7.70
2017-07-20T01:50:14.342Z,7.77
2017-07-20T01:52:55.658Z,7.20
2017-07-20T01:55:23.208Z,7.67
2017-07-20T01:57:50.738Z,8.40
2017-07-20T02:00:18.393Z,8.63
2017-07-20T02:02:45.963Z,7.73
2017-07-20T02:05:13.498Z,7.40
2017-07-20T02:07:41.058Z,8.47
2017-07-20T02:10:08.877Z,8.50
2017-07-20T02:12:36.486Z,7.70
2017-07-20T02:15:04.289Z,8.40
2017-07-20T02:17:32.708Z,8.80
2017-07-20T02:20:00.329Z,9.17
2017-07-20T02:22:29.063Z,9.10
2017-07-20T02:24:56.626Z,8.50
2017-07-20T02:27:24.396Z,9.40
2017-07-20T02:29:51.978Z,8.93
2017-07-20T02:32:20.821Z,12.13
2017-07-20T02:34:48.627Z,9.27
2017-07-20T02:37:17.741Z,10.80
2017-07-20T02:39:45.331Z,8.80
2017-07-20T02:42:12.895Z,8.80
2017-07-20T02:44:40.426Z,8.63
2017-07-20T02:47:08.114Z,9.57
2017-07-20T02:49:35.679Z,9.43
2017-07-20T02:52:03.441Z,11.13
2017-07-20T02:54:30.990Z,9.70
2017-07-20T02:56:58.782Z,9.73
2017-07-20T02:59:27.072Z,9.00
2017-07-20T03:01:55.141Z,8.77
2017-07-20T03:04:22.742Z,8.13
2017-07-20T03:06:51.189Z,8.90
2017-07-20T03:09:18.852Z,8.83
2017-07-20T03:11:46.443Z,9.70
2017-07-20T03:14:14.106Z,8.80
2017-07-20T03:16:41.748Z,8.03
2017-07-20T03:19:09.309Z,8.40
2017-07-20T03:21:38.737Z,7.97
2017-07-20T03:24:06.533Z,8.60
2017-07-20T03:26:34.088Z,8.23
2017-07-20T03:29:01.588Z,9.23
2017-07-20T03:31:29.180Z,9.00
2017-07-20T03:33:56.710Z,8.33
2017-07-20T03:36:24.264Z,8.50
2017-07-20T03:38:51.835Z,8.40
2017-07-20T03:41:19.377Z,9.10
2017-07-20T03:43:47.193Z,8.20
2017-07-20T03:46:14.759Z,11.33
2017-07-20T03:48:42.611Z,9.57
2017-07-20T03:51:11.916Z,10.20
2017-07-20T03:53:39.523Z,9.37
2017-07-20T03:56:07.054Z,9.63
2017-07-20T03:58:34.627Z,10.10
2017-07-20T04:01:02.202Z,9.47
2017-07-20T04:03:29.750Z,12.00
2017-07-20T04:05:57.301Z,11.03
2017-07-20T04:08:25.825Z,9.40
2017-07-20T04:10:53.368Z,9.73
2017-07-20T04:13:21.735Z,9.40
2017-07-20T04:15:50.201Z,10.17
2017-07-20T04:18:17.817Z,9.00
2017-07-20T04:20:45.407Z,12.10
2017-07-20T04:23:12.963Z,10.23
2017-07-20T04:25:40.713Z,9.90
2017-07-20T04:28:08.327Z,10.03
2017-07-20T04:30:35.951Z,9.17
2017-07-20T04:33:03.493Z,10.80
2017-07-20T04:35:31.042Z,9.23
2017-07-20T04:37:58.607Z,9.60
2017-07-20T04:40:26.207Z,9.37
2017-07-20T04:42:53.802Z,10.27
2017-07-20T04:48:41.523Z,9.97
2017-07-20T04:54:16.649Z,11.37
2017-07-20T04:56:45.046Z,8.80
2017-07-20T04:59:12.667Z,8.93
2017-07-20T05:01:41.216Z,8.03
2017-07-20T05:04:08.795Z,10.50
2017-07-20T05:06:37.223Z,8.73
2017-07-20T05:09:04.997Z,9.13
2017-07-20T05:11:32.554Z,8.10
2017-07-20T05:14:00.165Z,9.40
2017-07-20T05:16:27.819Z,10.30
2017-07-20T05:18:55.418Z,9.97
2017-07-20T05:21:23.040Z,9.70
2017-07-20T05:23:50.687Z,8.60
2017-07-20T05:26:18.262Z,9.80
2017-07-20T05:28:45.920Z,10.57
2017-07-20T05:31:13.538Z,9.60
2017-07-20T05:33:41.167Z,9.37
2017-07-20T05:36:08.847Z,10.03
2017-07-20T05:38:36.676Z,10.57
2017-07-20T05:41:05.087Z,12.50
2017-07-20T05:43:33.618Z,12.30
2017-07-20T05:46:01.705Z,10.83
2017-07-20T05:48:29.835Z,11.23
2017-07-20T05:50:57.494Z,9.50
2017-07-20T05:53:25.849Z,11.00
2017-07-20T05:55:54.304Z,10.37
2017-07-20T05:58:22.727Z,10.17
2017-07-20T06:00:50.354Z,10.10
2017-07-20T06:03:18.105Z,9.50
2017-07-20T06:05:45.890Z,9.57
2017-07-20T06:08:13.494Z,8.40
2017-07-20T06:10:41.297Z,9.33
2017-07-20T06:13:09.051Z,7.77
2017-07-20T06:15:36.661Z,9.10
2017-07-20T06:18:04.255Z,7.57
2017-07-20T06:20:33.509Z,8.57
2017-07-20T06:23:01.802Z,8.10
2017-07-20T06:25:30.163Z,8.80
2017-07-20T06:27:57.765Z,8.93
2017-07-20T06:30:25.457Z,7.80
2017-07-20T06:32:53.524Z,8.67
2017-07-20T06:35:21.985Z,8.50
2017-07-20T06:37:50.252Z,8.83
2017-07-20T06:40:18.223Z,8.73
2017-07-20T06:42:46.656Z,8.33
2017-07-20T06:45:14.532Z,7.70
2017-07-20T06:47:42.299Z,8.13
2017-07-20T06:50:10.003Z,7.10
2017-07-20T06:52:37.741Z,8.20
2017-07-20T06:55:05.564Z,7.27
2017-07-20T06:57:33.289Z,7.27
2017-07-20T07:00:00.863Z,7.13
2017-07-20T07:02:31.823Z,8.23
2017-07-20T07:05:00.791Z,8.17
2017-07-20T07:07:29.490Z,7.33
2017-07-20T07:09:59.885Z,8.63
2017-07-20T07:12:27.469Z,8.07
2017-07-20T07:14:55.094Z,7.87
2017-07-20T07:17:22.900Z,6.63
2017-07-20T07:19:51.355Z,6.70
2017-07-20T07:22:19.358Z,6.43
2017-07-20T07:24:46.953Z,7.67
2017-07-20T07:27:14.787Z,7.03
2017-07-20T07:29:43.631Z,6.50
2017-07-20T07:32:12.743Z,6.90
2017-07-20T07:34:40.330Z,6.13
2017-07-20T07:37:07.930Z,6.43
2017-07-20T07:39:35.532Z,6.27
2017-07-20T07:42:03.169Z,6.97
2017-07-20T07:44:30.801Z,6.50
2017-07-20T07:46:59.249Z,6.93
2017-07-20T07:49:27.711Z,7.10
2017-07-20T07:51:55.521Z,6.53
2017-07-20T07:54:23.239Z,7.10
2017-07-20T07:56:52.346Z,6.33
2017-07-20T07:59:19.936Z,6.57
2017-07-20T08:01:47.630Z,7.60
2017-07-20T08:04:15.788Z,6.67
2017-07-20T08:06:43.561Z,6.90
2017-07-20T08:09:11.179Z,6.00
2017-07-20T08:12:10.704Z,6.60
2017-07-20T08:14:38.618Z,6.93
2017-07-20T08:17:06.270Z,7.33
2017-07-20T08:19:33.923Z,6.87
2017-07-20T08:22:01.591Z,6.63
2017-07-20T08:24:29.177Z,7.20
2017-07-20T08:26:56.740Z,7.20
2017-07-20T08:29:24.359Z,7.03
2017-07-20T08:31:52.009Z,6.70
2017-07-20T08:34:19.584Z,6.40
2017-07-20T08:36:47.215Z,6.13
2017-07-20T08:39:14.961Z,6.47
2017-07-20T08:41:42.641Z,5.97
2017-07-20T08:44:10.295Z,5.57
2017-07-20T08:46:38.032Z,6.83
2017-07-20T08:49:10.704Z,6.20
2017-07-20T08:51:38.302Z,6.40
2017-07-20T08:54:06.834Z,5.97
2017-07-20T08:56:34.673Z,5.67
2017-07-20T08:59:02.319Z,5.43
2017-07-20T09:01:31.290Z,4.77
2017-07-20T09:03:59.805Z,4.40
2017-07-20T09:06:29.016Z,6.13
2017-07-20T09:08:56.788Z,5.80
2017-07-20T09:11:24.341Z,7.70
2017-07-20T09:13:52.630Z,5.50
2017-07-20T09:16:20.276Z,5.50
2017-07-20T09:18:48.920Z,4.80
2017-07-20T09:21:17.185Z,4.17
2017-07-20T09:23:46.569Z,4.97
2017-07-20T09:26:14.182Z,5.27
2017-07-20T09:28:42.398Z,5.17
2017-07-20T09:31:10.075Z,4.50
2017-07-20T09:33:38.675Z,5.60
2017-07-20T09:36:06.504Z,5.37
2017-07-20T09:38:34.116Z,4.70
2017-07-20T09:41:01.947Z,5.30
2017-07-20T09:43:29.862Z,4.63
2017-07-20T09:45:58.321Z,4.07
2017-07-20T09:48:26.008Z,4.70
2017-07-20T09:50:53.785Z,4.70
2017-07-20T09:53:22.905Z,5.03
2017-07-20T09:55:50.595Z,4.80
2017-07-20T09:58:18.212Z,4.43
2017-07-20T10:00:46.881Z,5.27
2017-07-20T10:03:14.913Z,4.87
2017-07-20T10:05:44.402Z,4.80
2017-07-20T10:08:12.874Z,4.10
2017-07-20T10:10:40.665Z,4.20
2017-07-20T10:13:08.922Z,4.80
2017-07-20T10:15:36.557Z,4.40
2017-07-20T10:18:04.121Z,4.63
2017-07-20T10:20:31.694Z,3.97
2017-07-20T10:22:59.360Z,3.80
2017-07-20T10:25:26.923Z,4.03
2017-07-20T10:27:56.011Z,3.80
2017-07-20T10:30:23.659Z,3.80
2017-07-20T10:32:51.440Z,3.83
2017-07-20T10:35:20.676Z,3.90
2017-07-20T10:37:48.461Z,4.57
2017-07-20T10:40:16.694Z,4.10
2017-07-20T10:42:44.680Z,3.87
2017-07-20T10:45:12.883Z,4.00
2017-07-20T10:47:40.520Z,3.93
2017-07-20T10:50:08.132Z,4.03
2017-07-20T10:52:35.783Z,3.80
2017-07-20T10:55:03.420Z,4.50
2017-07-20T10:57:31.030Z,5.03
2017-07-20T10:59:58.700Z,4.50
2017-07-20T11:02:26.299Z,4.30
2017-07-20T11:04:53.934Z,4.23
2017-07-20T11:07:22.577Z,4.50
2017-07-20T11:09:51.638Z,4.40
2017-07-20T11:12:20.030Z,3.93
2017-07-20T11:14:47.773Z,3.70
2017-07-20T11:17:16.052Z,4.33
2017-07-20T11:19:44.564Z,4.50
2017-07-20T11:22:14.278Z,4.13
2017-07-20T11:24:42.537Z,5.00
2017-07-20T11:27:10.148Z,3.97
2017-07-20T11:29:37.720Z,4.70
2017-07-20T11:32:05.350Z,4.70
2017-07-20T11:34:33.013Z,3.80
2017-07-20T11:37:02.929Z,5.50
2017-07-20T11:39:30.562Z,4.70
2017-07-20T11:41:59.450Z,4.20
2017-07-20T11:44:46.369Z,4.60
2017-07-20T11:47:14.421Z,3.73
2017-07-20T11:49:43.065Z,4.10
2017-07-20T11:52:11.490Z,4.23
2017-07-20T11:54:40.000Z,4.33
2017-07-20T11:57:07.787Z,4.13
2017-07-20T11:59:35.393Z,3.70
2017-07-20T12:02:03.066Z,4.67
2017-07-20T12:04:31.714Z,4.53
2017-07-20T12:06:59.300Z,4.30
2017-07-20T12:09:26.874Z,3.97
2017-07-20T12:11:54.457Z,4.50
2017-07-20T12:14:21.986Z,4.37
2017-07-20T12:16:49.542Z,4.37
2017-07-20T12:19:17.284Z,3.80
2017-07-20T12:21:44.813Z,4.17
2017-07-20T12:24:12.413Z,4.03
2017-07-20T12:26:39.986Z,4.43
2017-07-20T12:29:09.114Z,4.00
2017-07-20T12:31:37.050Z,4.00
2017-07-20T12:34:05.392Z,4.53
2017-07-20T12:36:32.911Z,4.20
2017-07-20T12:39:00.499Z,4.43
2017-07-20T12:41:28.024Z,4.93
2017-07-20T12:43:56.241Z,4.30
2017-07-20T12:46:24.720Z,3.90
2017-07-20T12:48:53.253Z,3.80
2017-07-20T12:51:20.871Z,3.80
2017-07-20T12:53:48.486Z,4.53
2017-07-20T12:56:16.655Z,4.30
2017-07-20T12:58:45.707Z,4.50
2017-07-20T13:01:13.353Z,4.00
2017-07-20T13:03:42.261Z,4.53
2017-07-20T13:06:11.686Z,4.03
2017-07-20T13:08:39.292Z,4.40
2017-07-20T13:11:06.894Z,4.27
2017-07-20T13:13:34.415Z,4.40
2017-07-20T13:16:03.427Z,4.20
2017-07-20T13:18:30.994Z,4.50
2017-07-20T13:20:59.503Z,4.50
2017-07-20T13:23:27.964Z,4.80
2017-07-20T13:25:56.941Z,4.60
2017-07-20T13:28:25.038Z,5.20
2017-07-20T13:30:53.411Z,5.17
2017-07-20T13:33:21.945Z,4.40
2017-07-20T13:35:49.479Z,5.10
2017-07-20T13:38:17.298Z,4.00
2017-07-20T13:40:45.095Z,5.30
2017-07-20T13:43:12.939Z,3.93
2017-07-20T13:45:40.556Z,5.13
2017-07-20T13:48:08.921Z,4.83
2017-07-20T13:50:37.527Z,4.30
2017-07-20T13:53:06.011Z,4.47
2017-07-20T13:55:33.978Z,4.70
2017-07-20T13:58:02.047Z,5.10
2017-07-20T14:00:30.388Z,4.77
2017-07-20T14:02:58.871Z,5.37
2017-07-20T14:05:26.664Z,5.23
2017-07-20T14:07:54.637Z,5.40
2017-07-20T14:10:22.423Z,5.37
2017-07-20T14:12:50.964Z,4.67
2017-07-20T14:15:18.583Z,4.87
2017-07-20T14:17:46.349Z,4.80
2017-07-20T14:20:14.963Z,4.67
2017-07-20T14:22:43.898Z,5.60
2017-07-20T14:25:12.485Z,5.00
2017-07-20T14:27:40.894Z,5.90
2017-07-20T14:30:09.199Z,5.30
2017-07-20T14:32:37.118Z,5.77
2017-07-20T14:35:05.601Z,4.73
2017-07-20T14:37:33.766Z,5.43
2017-07-20T14:40:02.202Z,4.93
2017-07-20T14:42:29.843Z,4.97
2017-07-20T14:44:58.133Z,4.87
2017-07-20T14:47:25.713Z,5.27
2017-07-20T14:49:54.281Z,5.27
2017-07-20T14:52:21.974Z,5.60
2017-07-20T14:54:49.585Z,4.97
2017-07-20T14:57:17.945Z,5.40
2017-07-20T14:59:45.530Z,5.73
2017-07-20T15:02:14.036Z,5.70
2017-07-20T15:04:41.705Z,5.20
2017-07-20T15:07:10.575Z,5.30
2017-07-20T15:09:38.712Z,6.27
2017-07-20T15:12:07.127Z,5.60
2017-07-20T15:14:34.682Z,5.00
2017-07-20T15:17:02.655Z,5.50
2017-07-20T15:19:30.330Z,4.87
2017-07-20T15:21:57.947Z,5.10
2017-07-20T15:24:26.442Z,5.60
2017-07-20T15:26:53.966Z,5.70
2017-07-20T15:29:22.247Z,5.80
2017-07-20T15:31:50.923Z,5.40
2017-07-20T15:34:18.623Z,5.23
2017-07-20T15:36:47.445Z,5.33
2017-07-20T15:39:15.501Z,5.67
2017-07-20T15:41:43.622Z,5.77
2017-07-20T15:44:12.227Z,5.73
2017-07-20T15:46:39.787Z,6.10
2017-07-20T15:49:07.628Z,5.13
2017-07-20T15:51:35.404Z,5.40
2017-07-20T15:54:03.009Z,5.90
2017-07-20T15:56:31.193Z,5.77
2017-07-20T15:58:59.501Z,5.93
2017-07-20T16:01:27.459Z,5.63
2017-07-20T16:03:55.089Z,5.30
2017-07-20T16:06:23.459Z,5.77
2017-07-20T16:08:51.212Z,5.13
2017-07-20T16:11:18.954Z,5.57
2017-07-20T16:13:47.126Z,5.33
2017-07-20T16:16:14.740Z,5.20
2017-07-20T16:18:42.250Z,5.40
2017-07-20T16:21:09.785Z,6.10
2017-07-20T16:23:38.934Z,5.80
2017-07-20T16:26:07.431Z,6.60
2017-07-20T16:28:35.127Z,5.93
2017-07-20T16:31:03.852Z,5.77
2017-07-20T16:33:32.753Z,5.70
2017-07-20T16:36:01.281Z,5.83
2017-07-20T16:38:29.901Z,5.93
2017-07-20T16:40:58.562Z,6.40
2017-07-20T16:43:27.004Z,6.83
2017-07-20T16:45:55.356Z,4.93
2017-07-20T16:48:23.158Z,4.63
2017-07-20T16:50:50.906Z,5.30
2017-07-20T16:53:19.286Z,5.77
2017-07-20T16:55:50.016Z,5.50
2017-07-20T16:58:19.351Z,5.17
2017-07-20T17:00:47.702Z,5.40
2017-07-20T17:03:16.149Z,5.20
2017-07-20T17:05:43.786Z,5.00
2017-07-20T17:08:12.200Z,6.30
2017-07-20T17:10:40.557Z,5.10
2017-07-20T17:13:08.484Z,5.80
2017-07-20T17:15:36.132Z,5.80
2017-07-20T17:18:03.876Z,9.50
2017-07-20T17:20:32.300Z,6.07
2017-07-20T17:23:01.444Z,6.57
2017-07-20T17:25:30.561Z,5.30
2017-07-20T17:28:00.114Z,4.77
2017-07-20T17:30:28.772Z,5.90
2017-07-20T17:32:57.620Z,4.90
2017-07-20T17:35:26.103Z,6.03
2017-07-20T17:37:54.737Z,5.03
2017-07-20T17:40:23.181Z,4.63
2017-07-20T17:42:50.847Z,5.60
2017-07-20T17:45:18.679Z,5.00
2017-07-20T17:47:47.529Z,5.60
2017-07-20T17:50:15.215Z,5.87
2017-07-20T17:52:42.913Z,6.00
2017-07-20T17:55:10.569Z,5.80
2017-07-20T17:57:38.193Z,5.77
2017-07-20T18:00:06.615Z,5.60
2017-07-20T18:02:34.776Z,5.97
2017-07-20T18:05:02.524Z,5.73
2017-07-20T18:07:30.243Z,5.20
2017-07-20T18:09:57.883Z,6.10
2017-07-20T18:12:26.084Z,6.00
2017-07-20T18:14:54.078Z,6.60
2017-07-20T18:17:21.759Z,6.00
2017-07-20T18:19:49.388Z,6.53
2017-07-20T18:22:17.872Z,7.10
2017-07-20T18:24:45.592Z,6.80
2017-07-20T18:27:13.167Z,6.80
2017-07-20T18:29:41.097Z,6.37
2017-07-20T18:32:09.576Z,6.60
2017-07-20T18:34:38.785Z,6.50
2017-07-20T18:37:07.096Z,6.30
2017-07-20T18:39:36.205Z,6.83
2017-07-20T18:42:04.641Z,6.70
2017-07-20T18:44:33.106Z,7.50
2017-07-20T18:47:01.047Z,6.23
2017-07-20T18:49:29.013Z,6.90
2017-07-20T18:51:56.623Z,7.27
2017-07-20T18:54:24.210Z,6.80
2017-07-20T18:56:52.129Z,7.77
2017-07-20T18:59:19.831Z,7.67
2017-07-20T19:01:48.125Z,8.67
2017-07-20T19:04:17.119Z,8.10
2017-07-20T19:06:44.654Z,7.30
2017-07-20T19:09:13.178Z,7.40
2017-07-20T19:11:40.735Z,8.40
2017-07-20T19:14:09.322Z,7.33
2017-07-20T19:16:36.925Z,7.47
2017-07-20T19:19:04.476Z,7.80
2017-07-20T19:21:32.328Z,7.27
2017-07-20T19:24:00.272Z,7.60
2017-07-20T19:26:31.412Z,8.10
2017-07-20T19:28:59.089Z,7.20
2017-07-20T19:31:27.669Z,7.43
2017-07-20T19:33:56.304Z,7.60
2017-07-20T19:36:24.741Z,7.73
2017-07-20T19:38:52.468Z,7.47
2017-07-20T19:41:20.859Z,9.07
2017-07-20T19:43:48.605Z,9.70
2017-07-20T19:46:16.512Z,8.73
2017-07-20T19:48:45.084Z,9.93
2017-07-20T19:51:13.032Z,8.90
2017-07-20T19:53:40.821Z,8.43
2017-07-20T19:56:08.522Z,7.43
2017-07-20T19:58:36.271Z,7.43
2017-07-20T20:01:03.999Z,7.13
2017-07-20T20:03:31.769Z,7.87
2017-07-20T20:05:59.485Z,7.40
2017-07-20T20:08:27.227Z,6.67
2017-07-20T20:10:54.984Z,6.97
2017-07-20T20:13:23.650Z,6.90
2017-07-20T20:15:51.674Z,6.60
2017-07-20T20:18:22.294Z,6.17
2017-07-20T20:20:54.493Z,6.40
2017-07-20T20:23:22.213Z,6.40
2017-07-20T20:28:51.556Z,6.20
2017-07-20T20:31:19.794Z,6.53
2017-07-20T20:33:47.518Z,6.40
2017-07-20T20:36:15.284Z,6.27
2017-07-20T20:38:43.094Z,6.40
2017-07-20T20:41:11.068Z,7.03
2017-07-20T20:47:03.096Z,9.07
2017-07-20T20:49:30.875Z,11.77
2017-07-20T20:52:01.289Z,12.77
2017-07-20T20:54:30.164Z,13.63
2017-07-20T20:56:59.320Z,11.80
2017-07-20T20:59:27.213Z,11.00
2017-07-20T21:01:54.982Z,10.53
2017-07-20T21:04:29.553Z,10.87
2017-07-20T21:06:57.296Z,11.10
2017-07-20T21:09:26.706Z,9.40
2017-07-20T21:11:57.191Z,10.50
2017-07-20T21:14:25.145Z,10.50
2017-07-20T21:16:52.926Z,9.20
2017-07-20T21:19:20.823Z,8.53
2017-07-20T21:21:48.533Z,8.67
2017-07-20T21:24:16.263Z,9.33
2017-07-20T21:26:44.909Z,8.70
2017-07-20T21:29:13.301Z,8.60
2017-07-20T21:31:41.141Z,8.10
2017-07-20T21:37:30.593Z,8.00
2017-07-20T21:39:58.316Z,7.53
2017-07-20T21:42:26.096Z,7.80
2017-07-20T21:44:53.885Z,7.57
2017-07-20T21:47:21.828Z,8.80
2017-07-20T21:49:50.340Z,8.60
2017-07-20T21:52:18.242Z,8.53
2017-07-20T21:54:46.926Z,7.60
2017-07-20T21:57:14.711Z,8.73
2017-07-20T21:59:42.534Z,8.50
2017-07-20T22:02:10.279Z,8.40
2017-07-20T22:04:38.106Z,8.90
2017-07-20T22:07:05.813Z,8.73
2017-07-20T22:09:33.557Z,8.40
2017-07-20T22:12:01.229Z,8.97
2017-07-20T22:14:29.139Z,8.00
2017-07-20T22:16:56.995Z,8.30
2017-07-20T22:19:28.049Z,7.77
2017-07-20T22:21:55.994Z,8.87
2017-07-20T22:24:23.706Z,8.63
2017-07-20T22:26:51.646Z,8.10
2017-07-20T22:29:20.317Z,7.93
2017-07-20T22:31:48.061Z,8.17
2017-07-20T22:34:15.867Z,8.60
2017-07-20T22:36:44.290Z,8.40
2017-07-20T22:39:11.965Z,8.60
2017-07-20T22:41:39.739Z,8.40
2017-07-20T22:44:07.484Z,8.10
2017-07-20T22:46:35.282Z,8.17
2017-07-20T22:49:03.440Z,9.10
2017-07-20T22:51:31.600Z,8.80
2017-07-20T22:53:59.353Z,8.30
2017-07-20T22:56:27.102Z,8.60
2017-07-20T22:58:54.857Z,9.27
2017-07-20T23:01:22.652Z,8.63
2017-07-20T23:03:56.593Z,9.30
2017-07-20T23:06:24.308Z,11.83
2017-07-20T23:08:52.128Z,10.53
2017-07-20T23:11:19.993Z,8.83
2017-07-20T23:13:47.739Z,9.27
2017-07-20T23:16:15.544Z,8.77
2017-07-20T23:18:43.232Z,8.90
2017-07-20T23:21:11.901Z,9.90
2017-07-20T23:23:40.615Z,9.70
2017-07-20T23:26:08.422Z,10.47
2017-07-20T23:28:36.175Z,10.60
2017-07-20T23:31:03.997Z,9.23
2017-07-20T23:33:31.743Z,9.77
2017-07-20T23:35:59.387Z,9.20
2017-07-20T23:38:27.068Z,10.10
2017-07-20T23:40:54.834Z,9.20
2017-07-20T23:43:22.580Z,10.40
2017-07-20T23:45:52.173Z,10.57
2017-07-20T23:48:19.893Z,10.20
2017-07-20T23:50:47.654Z,9.90
2017-07-20T23:53:15.434Z,8.90
2017-07-20T23:55:43.198Z,8.60
2017-07-20T23:58:10.962Z,9.13
